createdAt,value
2022-12-22T00:00:16.578Z,12.62
2022-12-22T00:03:01.541Z,12.57
2022-12-22T00:05:46.757Z,12.59
2022-12-22T00:08:32.142Z,12.66
2022-12-22T00:11:19.271Z,12.61
2022-12-22T00:14:05.385Z,12.59
2022-12-22T00:16:55.950Z,12.60
2022-12-22T00:19:41.558Z,12.55
2022-12-22T00:22:38.614Z,12.56
2022-12-22T00:25:24.700Z,12.55
2022-12-22T00:28:10.045Z,12.60
2022-12-22T00:30:55.991Z,12.58
2022-12-22T00:33:41.595Z,12.60
2022-12-22T00:36:30.024Z,12.73
2022-12-22T00:39:15.488Z,12.68
2022-12-22T00:42:00.881Z,12.60
2022-12-22T00:44:46.161Z,12.59
2022-12-22T00:47:37.494Z,12.56
2022-12-22T00:50:23.384Z,12.56
2022-12-22T00:53:08.586Z,12.79
2022-12-22T00:55:53.480Z,12.78
2022-12-22T00:58:39.360Z,12.70
2022-12-22T01:01:24.627Z,12.80
2022-12-22T01:04:09.717Z,12.84
2022-12-22T01:06:55.220Z,12.99
2022-12-22T01:09:41.546Z,12.89
2022-12-22T01:12:36.285Z,12.86
2022-12-22T01:15:21.571Z,12.74
2022-12-22T01:18:06.382Z,12.73
2022-12-22T01:20:51.318Z,12.76
2022-12-22T01:23:36.563Z,12.73
2022-12-22T01:26:21.392Z,12.63
2022-12-22T01:29:06.306Z,12.72
2022-12-22T01:31:51.556Z,12.73
2022-12-22T01:34:37.125Z,12.76
2022-12-22T01:37:22.452Z,12.73
2022-12-22T01:40:07.294Z,12.72
2022-12-22T01:42:52.675Z,12.67
2022-12-22T01:45:42.611Z,12.68
2022-12-22T01:48:36.031Z,12.69
2022-12-22T01:51:27.995Z,12.69
2022-12-22T01:54:14.700Z,12.69
2022-12-22T01:57:00.106Z,12.70
2022-12-22T01:59:45.950Z,12.66
2022-12-22T02:02:31.285Z,12.59
2022-12-22T02:05:20.007Z,12.55
2022-12-22T02:08:23.301Z,12.54
2022-12-22T02:11:14.287Z,12.58
2022-12-22T02:14:31.024Z,12.57
2022-12-22T02:17:35.686Z,12.62
2022-12-22T02:20:48.152Z,12.69
2022-12-22T02:23:58.473Z,12.71
2022-12-22T02:26:50.859Z,12.71
2022-12-22T02:29:41.122Z,12.72
2022-12-22T02:32:25.979Z,12.72
2022-12-22T02:35:10.805Z,12.61
2022-12-22T02:38:14.493Z,12.61
2022-12-22T02:41:08.389Z,12.63
2022-12-22T02:44:05.605Z,12.64
2022-12-22T02:47:03.122Z,12.69
2022-12-22T02:50:13.833Z,12.74
2022-12-22T02:53:02.592Z,12.70
2022-12-22T02:55:49.481Z,12.81
2022-12-22T02:58:34.769Z,12.80
2022-12-22T03:01:23.153Z,12.79
2022-12-22T03:04:08.715Z,12.73
2022-12-22T03:06:53.860Z,12.72
2022-12-22T03:09:38.701Z,12.72
2022-12-22T03:12:23.394Z,12.69
2022-12-22T03:15:08.229Z,12.63
2022-12-22T03:17:53.144Z,12.56
2022-12-22T03:20:37.993Z,12.49
2022-12-22T03:23:26.094Z,12.45
2022-12-22T03:25:55.650Z,12.39
2022-12-22T03:28:25.927Z,12.36
2022-12-22T03:30:57.459Z,12.30
2022-12-22T03:33:24.050Z,12.26
2022-12-22T03:35:51.113Z,12.22
2022-12-22T03:38:18.104Z,12.21
2022-12-22T03:40:44.776Z,12.19
2022-12-22T03:43:31.154Z,12.14
2022-12-22T03:46:16.694Z,12.16
2022-12-22T03:49:09.536Z,12.07
2022-12-22T03:51:47.049Z,12.04
2022-12-22T03:54:16.989Z,11.99
2022-12-22T03:56:44.176Z,11.99
2022-12-22T03:59:11.437Z,11.98
2022-12-22T04:01:58.296Z,11.99
2022-12-22T04:04:26.536Z,11.95
2022-12-22T04:06:53.765Z,11.90
2022-12-22T04:09:22.210Z,11.87
2022-12-22T04:12:07.379Z,11.76
2022-12-22T04:14:34.955Z,11.77
2022-12-22T04:17:02.950Z,11.70
2022-12-22T04:19:30.031Z,11.69
2022-12-22T04:21:57.849Z,11.68
2022-12-22T04:24:24.400Z,11.68
2022-12-22T04:26:51.448Z,11.63
2022-12-22T04:29:18.105Z,11.67
2022-12-22T04:31:44.683Z,11.63
2022-12-22T04:34:11.276Z,11.62
2022-12-22T04:36:37.769Z,11.64
2022-12-22T04:39:04.514Z,11.60
2022-12-22T04:41:31.248Z,11.54
2022-12-22T04:43:57.707Z,11.60
2022-12-22T04:46:24.450Z,11.66
2022-12-22T04:48:54.654Z,11.61
2022-12-22T04:51:26.137Z,11.55
2022-12-22T04:53:52.674Z,11.50
2022-12-22T04:56:19.288Z,11.54
2022-12-22T04:58:45.766Z,11.49
2022-12-22T05:01:14.980Z,11.42
2022-12-22T05:03:41.740Z,11.41
2022-12-22T05:06:08.679Z,11.41
2022-12-22T05:08:35.590Z,11.33
2022-12-22T05:11:02.975Z,11.29
2022-12-22T05:13:31.169Z,11.27
2022-12-22T05:16:12.565Z,11.32
2022-12-22T05:18:40.688Z,11.28
2022-12-22T05:21:14.687Z,11.23
2022-12-22T05:23:41.820Z,11.20
2022-12-22T05:26:09.568Z,11.19
2022-12-22T05:28:36.590Z,11.24
2022-12-22T05:31:05.880Z,11.20
2022-12-22T05:33:32.489Z,11.13
2022-12-22T05:35:59.127Z,11.13
2022-12-22T05:38:25.701Z,11.09
2022-12-22T05:40:53.130Z,11.05
2022-12-22T05:43:22.235Z,11.05
2022-12-22T05:45:48.884Z,11.05
2022-12-22T05:48:15.841Z,11.09
2022-12-22T05:50:43.777Z,11.06
2022-12-22T05:53:10.492Z,11.09
2022-12-22T05:55:37.117Z,11.04
2022-12-22T05:58:03.852Z,11.05
2022-12-22T06:00:31.952Z,11.02
2022-12-22T06:02:59.039Z,11.01
2022-12-22T06:05:25.754Z,10.96
2022-12-22T06:07:52.239Z,10.97
2022-12-22T06:10:20.673Z,10.94
2022-12-22T06:12:47.224Z,10.96
2022-12-22T06:15:15.272Z,10.95
2022-12-22T06:17:44.833Z,10.96
2022-12-22T06:20:12.690Z,10.98
2022-12-22T06:22:39.260Z,11.01
2022-12-22T06:25:06.417Z,11.02
2022-12-22T06:27:32.938Z,10.98
2022-12-22T06:29:59.431Z,10.96
2022-12-22T06:32:25.989Z,10.95
2022-12-22T06:34:52.611Z,10.96
2022-12-22T06:37:19.160Z,10.95
2022-12-22T06:39:45.726Z,10.95
2022-12-22T06:42:31.036Z,10.89
2022-12-22T06:44:57.580Z,10.92
2022-12-22T06:47:24.106Z,10.91
2022-12-22T06:49:51.372Z,10.91
2022-12-22T06:52:17.892Z,10.92
2022-12-22T06:54:44.363Z,10.92
2022-12-22T06:57:10.893Z,10.92
2022-12-22T06:59:37.511Z,10.98
2022-12-22T07:02:04.219Z,10.95
2022-12-22T07:04:31.698Z,10.98
2022-12-22T07:06:58.273Z,11.00
2022-12-22T07:09:24.752Z,10.91
2022-12-22T07:11:51.290Z,10.88
2022-12-22T07:14:17.827Z,10.91
2022-12-22T07:16:45.720Z,10.81
2022-12-22T07:19:12.836Z,10.80
2022-12-22T07:21:39.658Z,10.83
2022-12-22T07:24:06.526Z,10.85
2022-12-22T07:26:33.076Z,10.86
2022-12-22T07:28:59.603Z,10.86
2022-12-22T07:31:26.143Z,10.85
2022-12-22T07:33:52.684Z,10.86
2022-12-22T07:36:20.765Z,10.87
2022-12-22T07:38:50.476Z,10.87
2022-12-22T07:41:37.941Z,10.85
2022-12-22T07:44:04.697Z,10.90
2022-12-22T07:46:34.560Z,10.88
2022-12-22T07:49:20.029Z,10.87
2022-12-22T07:51:46.888Z,10.86
2022-12-22T07:54:15.439Z,10.92
2022-12-22T07:56:43.275Z,11.00
2022-12-22T07:59:10.887Z,11.05
2022-12-22T08:01:38.198Z,11.00
2022-12-22T08:04:04.926Z,11.02
2022-12-22T08:06:33.520Z,11.06
2022-12-22T08:09:00.458Z,11.08
2022-12-22T08:11:27.106Z,11.10
2022-12-22T08:14:00.819Z,11.17
2022-12-22T08:16:28.099Z,11.19
2022-12-22T08:18:54.750Z,11.29
2022-12-22T08:21:21.429Z,11.37
2022-12-22T08:23:48.421Z,11.35
2022-12-22T08:26:25.183Z,11.42
2022-12-22T08:29:12.448Z,11.45
2022-12-22T08:31:39.875Z,11.45
2022-12-22T08:34:09.181Z,11.47
2022-12-22T08:36:40.257Z,11.47
2022-12-22T08:39:07.611Z,11.35
2022-12-22T08:41:50.674Z,11.23
2022-12-22T08:44:28.512Z,11.05
2022-12-22T08:46:57.416Z,11.27
2022-12-22T08:49:24.559Z,11.42
2022-12-22T08:51:51.859Z,11.46
2022-12-22T08:54:19.819Z,11.51
2022-12-22T08:56:46.809Z,11.54
2022-12-22T08:59:14.068Z,11.45
2022-12-22T09:01:44.492Z,11.21
2022-12-22T09:04:15.842Z,11.16
2022-12-22T09:06:42.424Z,11.31
2022-12-22T09:09:12.025Z,11.36
2022-12-22T09:11:39.608Z,11.42
2022-12-22T09:14:06.648Z,11.47
2022-12-22T09:16:34.761Z,11.49
2022-12-22T09:19:02.375Z,11.49
2022-12-22T09:21:29.371Z,11.46
2022-12-22T09:23:56.600Z,11.40
2022-12-22T09:26:25.276Z,11.46
2022-12-22T09:28:52.724Z,11.44
2022-12-22T09:31:20.822Z,11.47
2022-12-22T09:33:47.806Z,11.58
2022-12-22T09:36:17.644Z,11.67
2022-12-22T09:38:44.330Z,11.86
2022-12-22T09:41:16.994Z,12.02
2022-12-22T09:43:43.793Z,12.09
2022-12-22T09:46:21.776Z,12.16
2022-12-22T09:48:48.688Z,12.11
2022-12-22T09:51:22.726Z,12.06
2022-12-22T09:53:57.275Z,12.18
2022-12-22T09:56:25.356Z,12.22
2022-12-22T09:58:52.226Z,12.26
2022-12-22T10:01:55.691Z,12.28
2022-12-22T10:04:39.044Z,12.36
2022-12-22T10:07:33.403Z,12.41
2022-12-22T10:10:28.284Z,12.54
2022-12-22T10:12:57.139Z,12.59
2022-12-22T10:15:24.302Z,12.63
2022-12-22T10:17:52.414Z,12.66
2022-12-22T10:20:26.385Z,12.67
2022-12-22T10:23:02.308Z,12.72
2022-12-22T10:25:45.087Z,12.78
2022-12-22T10:28:22.367Z,12.84
2022-12-22T10:30:49.889Z,12.86
2022-12-22T10:33:18.963Z,12.91
2022-12-22T10:35:48.329Z,12.96
2022-12-22T10:38:26.977Z,13.09
2022-12-22T10:41:02.094Z,13.36
2022-12-22T10:43:38.888Z,13.43
2022-12-22T10:46:06.223Z,13.44
2022-12-22T10:48:38.431Z,13.40
2022-12-22T10:51:08.341Z,13.61
2022-12-22T10:53:56.497Z,13.60
2022-12-22T10:56:28.227Z,13.65
2022-12-22T10:59:04.673Z,13.70
2022-12-22T11:01:36.570Z,13.65
2022-12-22T11:04:26.780Z,13.64
2022-12-22T11:06:55.723Z,13.67
2022-12-22T11:09:33.743Z,13.70
2022-12-22T11:12:22.870Z,13.72
2022-12-22T11:14:58.335Z,13.73
2022-12-22T11:17:24.836Z,13.84
2022-12-22T11:20:09.971Z,14.02
2022-12-22T11:22:46.850Z,14.09
2022-12-22T11:25:20.139Z,14.10
2022-12-22T11:28:23.634Z,14.15
2022-12-22T11:31:19.651Z,14.17
2022-12-22T11:33:55.109Z,14.21
2022-12-22T11:36:52.196Z,14.30
2022-12-22T11:39:28.285Z,14.33
2022-12-22T11:41:58.557Z,14.38
2022-12-22T11:44:50.619Z,14.53
2022-12-22T11:47:21.936Z,14.64
2022-12-22T11:50:59.613Z,14.89
2022-12-22T11:53:05.116Z,15.00
2022-12-22T11:55:37.400Z,15.05
2022-12-22T11:58:14.206Z,15.09
2022-12-22T12:01:16.362Z,15.01
2022-12-22T12:04:09.772Z,14.95
2022-12-22T12:06:46.344Z,15.10
2022-12-22T12:09:37.237Z,15.12
2022-12-22T12:12:14.256Z,15.24
2022-12-22T12:15:10.186Z,15.25
2022-12-22T12:17:59.499Z,15.31
2022-12-22T12:20:38.130Z,15.42
2022-12-22T12:23:29.899Z,15.40
2022-12-22T12:26:08.474Z,15.45
2022-12-22T12:28:56.803Z,15.47
2022-12-22T12:31:31.617Z,15.57
2022-12-22T12:34:02.178Z,15.55
2022-12-22T12:36:31.867Z,15.58
2022-12-22T12:39:45.603Z,15.80
2022-12-22T12:42:53.503Z,15.82
2022-12-22T12:45:41.453Z,15.80
2022-12-22T12:48:23.633Z,15.89
2022-12-22T12:50:54.773Z,15.97
2022-12-22T12:53:26.646Z,16.16
2022-12-22T12:55:56.440Z,16.17
2022-12-22T12:58:37.990Z,16.24
2022-12-22T13:01:13.173Z,16.28
2022-12-22T13:06:49.843Z,16.36
2022-12-22T13:09:50.413Z,16.26
2022-12-22T13:12:54.120Z,16.16
2022-12-22T13:15:31.260Z,16.15
2022-12-22T13:17:58.928Z,16.24
2022-12-22T13:20:35.052Z,16.28
2022-12-22T13:23:10.542Z,16.46
2022-12-22T13:25:53.046Z,16.58
2022-12-22T13:28:23.324Z,16.59
2022-12-22T13:31:31.054Z,16.53
2022-12-22T13:34:08.539Z,16.53
2022-12-22T13:36:36.813Z,16.59
2022-12-22T13:39:15.200Z,16.59
2022-12-22T13:41:44.945Z,16.55
2022-12-22T13:44:16.544Z,16.61
2022-12-22T13:46:43.514Z,16.64
2022-12-22T13:49:30.262Z,16.63
2022-12-22T13:52:05.434Z,16.63
2022-12-22T13:54:38.281Z,16.61
2022-12-22T13:57:15.300Z,16.65
2022-12-22T13:59:45.538Z,16.69
2022-12-22T14:02:12.667Z,16.64
2022-12-22T14:04:41.751Z,16.84
2022-12-22T14:07:15.717Z,16.74
2022-12-22T14:09:50.386Z,16.81
2022-12-22T14:12:21.147Z,16.65
2022-12-22T14:14:51.017Z,16.61
2022-12-22T14:17:27.922Z,16.53
2022-12-22T14:19:57.215Z,16.51
2022-12-22T14:22:46.354Z,16.58
2022-12-22T14:25:32.126Z,16.52
2022-12-22T14:27:59.834Z,16.53
2022-12-22T14:30:36.233Z,16.60
2022-12-22T14:33:15.420Z,16.59
2022-12-22T14:35:42.200Z,16.52
2022-12-22T14:38:25.171Z,16.45
2022-12-22T14:40:57.133Z,16.51
2022-12-22T14:43:28.530Z,16.49
2022-12-22T14:46:05.545Z,16.39
2022-12-22T14:48:47.038Z,16.43
2022-12-22T14:51:20.557Z,16.50
2022-12-22T14:53:52.773Z,16.44
2022-12-22T14:56:20.099Z,16.41
2022-12-22T14:58:48.616Z,16.43
2022-12-22T15:01:15.113Z,16.37
2022-12-22T15:03:42.304Z,16.27
2022-12-22T15:06:27.055Z,16.26
2022-12-22T15:08:54.432Z,16.21
2022-12-22T15:11:24.414Z,16.20
2022-12-22T15:13:52.032Z,16.22
2022-12-22T15:16:21.602Z,16.18
2022-12-22T15:18:49.751Z,16.14
2022-12-22T15:21:17.469Z,16.16
2022-12-22T15:23:44.673Z,16.11
2022-12-22T15:26:11.969Z,16.07
2022-12-22T15:28:39.657Z,16.01
2022-12-22T15:31:14.524Z,16.00
2022-12-22T15:33:42.000Z,16.01
2022-12-22T15:36:13.202Z,15.96
2022-12-22T15:38:41.197Z,15.96
2022-12-22T15:41:07.972Z,15.97
2022-12-22T15:43:57.250Z,15.99
2022-12-22T15:46:24.742Z,16.07
2022-12-22T15:48:51.620Z,16.14
2022-12-22T15:51:24.807Z,15.99
2022-12-22T15:53:52.126Z,15.97
2022-12-22T15:56:22.755Z,15.90
2022-12-22T15:58:49.582Z,15.87
2022-12-22T16:01:16.223Z,15.87
2022-12-22T16:03:42.816Z,15.82
2022-12-22T16:06:13.935Z,15.82
2022-12-22T16:08:42.791Z,15.88
2022-12-22T16:11:09.469Z,15.87
2022-12-22T16:13:37.883Z,15.87
2022-12-22T16:16:05.126Z,15.88
2022-12-22T16:18:32.679Z,15.91
2022-12-22T16:21:07.950Z,15.95
2022-12-22T16:23:36.778Z,16.26
2022-12-22T16:26:04.885Z,16.65
2022-12-22T16:28:33.346Z,16.57
2022-12-22T16:31:01.325Z,16.59
2022-12-22T16:33:27.899Z,16.33
2022-12-22T16:35:54.414Z,15.99
2022-12-22T16:38:21.038Z,16.01
2022-12-22T16:40:53.065Z,16.13
2022-12-22T16:46:19.822Z,16.13
2022-12-22T16:48:50.903Z,16.12
2022-12-22T16:51:33.608Z,16.13
2022-12-22T16:54:00.990Z,16.05
2022-12-22T16:56:30.269Z,15.98
2022-12-22T16:58:57.282Z,15.93
2022-12-22T17:01:26.586Z,15.97
2022-12-22T17:03:53.624Z,15.90
2022-12-22T17:06:20.319Z,15.88
2022-12-22T17:08:47.303Z,15.92
2022-12-22T17:11:22.642Z,15.84
2022-12-22T17:13:52.438Z,15.77
2022-12-22T17:16:21.774Z,15.78
2022-12-22T17:18:49.085Z,15.72
2022-12-22T17:21:19.005Z,15.71
2022-12-22T17:23:49.970Z,15.78
2022-12-22T17:26:20.832Z,15.75
2022-12-22T17:28:48.699Z,15.74
2022-12-22T17:31:21.470Z,15.70
2022-12-22T17:33:48.469Z,15.70
2022-12-22T17:36:32.029Z,15.69
2022-12-22T17:38:59.338Z,15.69
2022-12-22T17:41:26.110Z,15.63
2022-12-22T17:43:52.670Z,15.60
2022-12-22T17:46:20.994Z,15.65
2022-12-22T17:48:49.064Z,15.56
2022-12-22T17:51:28.478Z,15.52
2022-12-22T17:53:57.481Z,15.58
2022-12-22T17:56:25.879Z,15.59
2022-12-22T17:58:52.844Z,15.53
2022-12-22T18:01:25.405Z,15.50
2022-12-22T18:03:52.594Z,15.57
2022-12-22T18:06:22.436Z,15.52
2022-12-22T18:08:50.993Z,15.58
2022-12-22T18:11:18.018Z,15.56
2022-12-22T18:13:45.010Z,15.65
2022-12-22T18:16:16.912Z,15.45
2022-12-22T18:18:43.826Z,15.34
2022-12-22T18:21:20.154Z,15.28
2022-12-22T18:23:50.487Z,15.28
2022-12-22T18:26:29.596Z,15.26
2022-12-22T18:28:57.090Z,15.21
2022-12-22T18:31:24.667Z,15.26
2022-12-22T18:33:52.195Z,15.22
2022-12-22T18:36:31.041Z,15.31
2022-12-22T18:39:00.022Z,15.11
2022-12-22T18:41:29.298Z,15.12
2022-12-22T18:43:55.884Z,15.08
2022-12-22T18:46:23.615Z,15.01
2022-12-22T18:48:51.022Z,15.05
2022-12-22T18:51:21.636Z,14.98
2022-12-22T18:53:50.342Z,15.00
2022-12-22T18:56:17.871Z,14.90
2022-12-22T18:58:44.772Z,14.93
2022-12-22T19:01:22.015Z,14.90
2022-12-22T19:03:49.168Z,14.82
2022-12-22T19:06:19.407Z,14.77
2022-12-22T19:08:48.218Z,14.71
2022-12-22T19:11:17.440Z,14.73
2022-12-22T19:13:47.874Z,14.77
2022-12-22T19:16:17.942Z,14.77
2022-12-22T19:18:44.866Z,14.81
2022-12-22T19:21:16.020Z,14.75
2022-12-22T19:23:43.008Z,14.84
2022-12-22T19:26:27.712Z,14.76
2022-12-22T19:28:55.592Z,14.78
2022-12-22T19:31:25.855Z,14.78
2022-12-22T19:33:53.637Z,14.79
2022-12-22T19:36:25.931Z,14.79
2022-12-22T19:39:03.278Z,14.78
2022-12-22T19:41:40.478Z,14.78
2022-12-22T19:44:22.541Z,14.81
2022-12-22T19:46:49.648Z,14.78
2022-12-22T19:49:19.001Z,14.83
2022-12-22T19:51:45.795Z,14.84
2022-12-22T19:54:12.670Z,14.77
2022-12-22T19:56:40.166Z,14.78
2022-12-22T19:59:14.578Z,14.77
2022-12-22T20:01:41.229Z,14.85
2022-12-22T20:04:12.256Z,14.76
2022-12-22T20:06:38.851Z,14.77
2022-12-22T20:09:05.415Z,14.88
2022-12-22T20:11:33.015Z,14.97
2022-12-22T20:13:59.817Z,14.92
2022-12-22T20:16:26.386Z,14.96
2022-12-22T20:18:53.015Z,14.92
2022-12-22T20:21:29.574Z,14.91
2022-12-22T20:24:00.122Z,14.92
2022-12-22T20:26:27.680Z,14.92
2022-12-22T20:28:55.423Z,14.96
2022-12-22T20:31:24.261Z,14.99
2022-12-22T20:33:52.312Z,15.02
2022-12-22T20:36:26.805Z,15.02
2022-12-22T20:38:55.151Z,15.03
2022-12-22T20:41:22.093Z,14.99
2022-12-22T20:43:49.560Z,15.02
2022-12-22T20:46:25.541Z,15.09
2022-12-22T20:48:56.488Z,15.36
2022-12-22T20:51:25.257Z,15.24
2022-12-22T20:53:52.466Z,15.37
2022-12-22T20:56:28.163Z,15.36
2022-12-22T20:58:55.985Z,15.33
2022-12-22T21:01:23.503Z,15.33
2022-12-22T21:03:50.391Z,15.37
2022-12-22T21:06:20.084Z,15.31
2022-12-22T21:08:46.586Z,15.25
2022-12-22T21:11:13.096Z,15.28
2022-12-22T21:13:39.688Z,15.24
2022-12-22T21:16:12.847Z,15.24
2022-12-22T21:18:39.422Z,15.26
2022-12-22T21:21:06.018Z,15.23
2022-12-22T21:23:32.585Z,15.20
2022-12-22T21:25:59.804Z,15.12
2022-12-22T21:28:33.366Z,15.14
2022-12-22T21:31:00.346Z,15.16
2022-12-22T21:33:26.981Z,15.12
2022-12-22T21:35:55.500Z,15.12
2022-12-22T21:38:25.796Z,15.07
2022-12-22T21:40:52.450Z,15.03
2022-12-22T21:43:19.307Z,15.07
2022-12-22T21:45:48.915Z,15.05
2022-12-22T21:48:18.937Z,15.03
2022-12-22T21:50:46.969Z,15.00
2022-12-22T21:53:19.779Z,14.97
2022-12-22T21:55:49.067Z,14.93
2022-12-22T21:58:15.746Z,14.97
2022-12-22T22:00:47.069Z,15.02
2022-12-22T22:03:15.042Z,14.98
2022-12-22T22:05:42.486Z,14.95
2022-12-22T22:08:11.446Z,14.92
2022-12-22T22:10:43.147Z,14.93
2022-12-22T22:13:18.700Z,14.92
2022-12-22T22:15:45.245Z,14.93
2022-12-22T22:18:20.303Z,14.98
2022-12-22T22:20:47.157Z,14.92
2022-12-22T22:23:14.571Z,14.88
2022-12-22T22:25:41.277Z,14.90
2022-12-22T22:28:10.408Z,14.89
2022-12-22T22:30:36.891Z,14.91
2022-12-22T22:33:03.726Z,14.91
2022-12-22T22:35:30.219Z,14.85
2022-12-22T22:37:56.732Z,14.86
2022-12-22T22:40:24.207Z,14.87
2022-12-22T22:42:50.848Z,14.93
2022-12-22T22:45:23.749Z,14.90
2022-12-22T22:47:51.920Z,14.87
2022-12-22T22:50:19.545Z,14.84
2022-12-22T22:52:46.733Z,14.87
2022-12-22T22:55:14.384Z,14.93
2022-12-22T22:57:41.916Z,14.91
2022-12-22T23:00:11.800Z,14.92
2022-12-22T23:02:39.033Z,14.88
2022-12-22T23:05:06.086Z,14.91
2022-12-22T23:07:32.695Z,14.92
2022-12-22T23:09:59.273Z,14.87
2022-12-22T23:12:25.998Z,14.85
2022-12-22T23:14:52.590Z,14.83
2022-12-22T23:17:19.370Z,14.81
2022-12-22T23:19:45.913Z,14.86
2022-12-22T23:22:12.715Z,14.79
2022-12-22T23:24:39.262Z,14.85
2022-12-22T23:27:06.151Z,14.83
2022-12-22T23:29:32.751Z,14.88
2022-12-22T23:31:59.696Z,14.87
2022-12-22T23:34:26.277Z,14.91
2022-12-22T23:36:52.796Z,14.90
2022-12-22T23:39:19.342Z,14.95
2022-12-22T23:41:45.983Z,14.93
2022-12-22T23:44:12.739Z,14.92
2022-12-22T23:46:40.026Z,14.90
2022-12-22T23:49:07.444Z,14.91
2022-12-22T23:51:33.988Z,14.87
2022-12-22T23:54:01.557Z,14.86
2022-12-22T23:56:31.335Z,14.83
2022-12-22T23:58:58.777Z,14.87
